Terminal Aerodrome Forecast
Issued by NWS Charleston, WV

Current Version | Previous Version | Graphics & Text | Print | Product List | Glossary On
Versions: 1 2 3 4 5 6 7 8 9 10 11 12 13 14 15 16 17 18 19 20 21 22 23 24 25 26 27 28
406
FTUS41 KRLX 272212 AAA
TAFCRW
TAF AMD
KCRW 272212Z 2722/2818 24005KT P6SM SCT060
     FM272310 18015G25KT 1/2SM +TSRA BKN030CB
     FM280000 00000KT P6SM SCT030 SCT150
     FM280800 00000KT 6SM BR SCT150
     FM280930 00000KT 4SM BR BKN200
     FM281300 20005KT P6SM SCT070=

USA.gov is the U.S. government's official web portal to all federal, state and local government web resources and services.